createdAt,value
2018-02-06T00:00:49.762Z,101495.75
2018-02-06T00:03:15.719Z,101494.19
2018-02-06T00:05:41.664Z,101491.63
2018-02-06T00:08:07.625Z,101493.19
2018-02-06T00:10:33.650Z,101487.50
2018-02-06T00:12:59.599Z,101479.16
2018-02-06T00:15:25.560Z,101473.05
2018-02-06T00:17:51.497Z,101474.02
2018-02-06T00:20:17.454Z,101471.74
2018-02-06T00:22:43.417Z,101471.50
2018-02-06T00:25:09.395Z,101467.02
2018-02-06T00:27:35.337Z,101459.78
2018-02-06T00:30:01.266Z,101452.58
2018-02-06T00:32:27.229Z,101445.19
2018-02-06T00:34:53.174Z,101439.06
2018-02-06T00:37:19.163Z,101438.00
2018-02-06T00:39:45.105Z,101436.91
2018-02-06T00:42:11.077Z,101429.30
2018-02-06T00:44:37.033Z,101425.83
2018-02-06T00:47:02.971Z,101417.92
2018-02-06T00:49:28.934Z,101408.65
2018-02-06T00:51:54.919Z,101407.53
2018-02-06T00:54:20.873Z,101388.00
2018-02-06T00:56:46.829Z,101391.44
2018-02-06T00:59:12.853Z,101385.80
2018-02-06T01:01:38.833Z,101386.75
2018-02-06T01:04:04.779Z,101387.11
2018-02-06T01:06:30.778Z,101384.13
2018-02-06T01:08:56.766Z,101379.27
2018-02-06T01:11:22.702Z,101376.15
2018-02-06T01:13:48.645Z,101365.22
2018-02-06T01:16:14.681Z,101364.98
2018-02-06T01:18:40.722Z,101362.77
2018-02-06T01:21:06.679Z,101362.87
2018-02-06T01:23:32.629Z,101360.55
2018-02-06T01:25:58.586Z,101365.23
2018-02-06T01:28:24.529Z,101361.33
2018-02-06T01:30:50.501Z,101360.11
2018-02-06T01:33:16.491Z,101358.03
2018-02-06T01:35:42.433Z,101357.67
2018-02-06T01:38:08.394Z,101349.70
2018-02-06T01:40:34.329Z,101346.38
2018-02-06T01:43:00.269Z,101341.45
2018-02-06T01:45:26.222Z,101338.52
2018-02-06T01:47:52.197Z,101331.83
2018-02-06T01:50:18.174Z,101333.98
2018-02-06T01:52:44.121Z,101327.98
2018-02-06T01:55:10.093Z,101322.87
2018-02-06T01:57:36.049Z,101330.86
2018-02-06T02:00:02.025Z,101321.55
2018-02-06T02:02:28.069Z,101313.76
2018-02-06T02:04:54.036Z,101308.44
2018-02-06T02:07:19.989Z,101307.30
2018-02-06T02:09:45.942Z,101299.68
2018-02-06T02:12:11.905Z,101296.34
2018-02-06T02:14:37.845Z,101291.70
2018-02-06T02:17:03.812Z,101287.67
2018-02-06T02:19:29.758Z,101283.38
2018-02-06T02:21:55.729Z,101276.74
2018-02-06T02:24:21.684Z,101274.33
2018-02-06T02:26:47.637Z,101273.14
2018-02-06T02:29:13.588Z,101269.13
2018-02-06T02:31:39.531Z,101266.98
2018-02-06T02:34:05.489Z,101256.28
2018-02-06T02:36:31.437Z,101246.75
2018-02-06T02:38:57.416Z,101244.67
2018-02-06T02:41:23.365Z,101242.25
2018-02-06T04:40:35.564Z,101108.69
2018-02-06T04:43:01.534Z,101106.86
2018-02-06T04:45:27.525Z,101106.28
2018-02-06T04:47:53.480Z,101101.02
2018-02-06T04:50:19.424Z,101096.02
2018-02-06T04:52:45.538Z,101093.67
2018-02-06T04:55:11.478Z,101096.68
2018-02-06T04:57:37.449Z,101092.12
2018-02-06T05:00:03.405Z,101088.41
2018-02-06T05:02:29.340Z,101084.84
2018-02-06T05:04:55.308Z,101083.27
2018-02-06T05:07:21.251Z,101076.50
2018-02-06T05:09:47.204Z,101070.67
2018-02-06T05:12:13.149Z,101072.36
2018-02-06T05:14:39.101Z,101070.06
2018-02-06T05:17:05.113Z,101069.60
2018-02-06T05:19:31.090Z,101068.50
2018-02-06T05:21:57.041Z,101070.97
2018-02-06T05:24:23.049Z,101071.34
2018-02-06T05:26:49.008Z,101068.48
2018-02-06T05:29:14.961Z,101065.97
2018-02-06T05:31:40.949Z,101067.82
2018-02-06T05:34:06.901Z,101059.89
2018-02-06T05:36:32.861Z,101052.30
2018-02-06T05:38:58.801Z,101055.70
2018-02-06T05:41:24.776Z,101051.17
2018-02-06T05:43:50.733Z,101052.96
2018-02-06T05:46:16.702Z,101053.55
2018-02-06T05:48:42.705Z,101053.30
2018-02-06T05:51:08.666Z,101042.62
2018-02-06T05:53:34.620Z,101043.95
2018-02-06T05:56:00.601Z,101032.80
2018-02-06T05:58:26.590Z,101029.61
2018-02-06T06:00:52.523Z,101024.68
2018-02-06T06:03:18.485Z,101021.56
2018-02-06T06:05:44.466Z,101017.23
2018-02-06T06:08:10.417Z,101017.80
2018-02-06T06:10:36.385Z,101017.48
2018-02-06T06:13:02.335Z,101018.39
2018-02-06T06:15:28.286Z,101022.71
2018-02-06T06:17:54.225Z,101016.97
2018-02-06T06:20:20.201Z,101009.48
2018-02-06T06:22:46.149Z,101014.69
2018-02-06T06:25:12.120Z,101013.64
2018-02-06T06:27:38.066Z,101013.77
2018-02-06T06:30:04.028Z,101006.33
2018-02-06T06:32:30.001Z,101002.35
2018-02-06T06:34:55.957Z,101001.81
2018-02-06T06:37:21.918Z,101000.39
2018-02-06T06:39:47.868Z,101004.42
2018-02-06T06:42:13.825Z,101003.01
2018-02-06T06:44:39.789Z,100994.52
2018-02-06T06:47:05.744Z,100993.73
2018-02-06T06:49:31.705Z,100989.92
2018-02-06T06:51:57.672Z,100986.17
2018-02-06T06:54:23.664Z,100989.63
2018-02-06T06:56:49.610Z,100991.88
2018-02-06T06:59:15.541Z,100982.23
2018-02-06T07:01:41.501Z,100986.91
2018-02-06T07:04:07.528Z,100988.55
2018-02-06T07:06:33.490Z,100986.13
2018-02-06T07:08:59.448Z,100987.95
2018-02-06T07:11:25.440Z,100982.27
2018-02-06T07:13:51.397Z,100983.56
2018-02-06T07:16:17.325Z,100988.36
2018-02-06T07:18:43.305Z,100988.28
2018-02-06T07:21:09.264Z,100982.85
2018-02-06T07:23:35.201Z,100988.14
2018-02-06T07:26:01.145Z,100981.44
2018-02-06T07:28:27.193Z,100985.08
2018-02-06T07:30:53.165Z,100985.31
2018-02-06T07:33:19.133Z,100987.13
2018-02-06T07:35:45.073Z,100989.34
2018-02-06T07:38:11.835Z,100985.20
2018-02-06T07:40:37.773Z,100982.91
2018-02-06T07:43:03.742Z,100990.19
2018-02-06T07:45:29.677Z,100984.05
2018-02-06T07:47:55.733Z,100988.39
2018-02-06T07:50:21.681Z,100980.58
2018-02-06T07:52:47.627Z,100984.90
2018-02-06T07:55:13.581Z,100983.72
2018-02-06T07:57:39.521Z,100984.36
2018-02-06T08:00:05.473Z,100986.23
2018-02-06T08:02:31.430Z,100982.84
2018-02-06T08:04:57.391Z,100979.96
2018-02-06T08:07:23.329Z,100977.74
2018-02-06T08:09:49.284Z,100984.90
2018-02-06T08:12:15.270Z,100986.35
2018-02-06T08:14:41.218Z,100985.87
2018-02-06T08:17:07.214Z,100981.17
2018-02-06T08:19:33.173Z,100976.91
2018-02-06T08:21:59.146Z,100975.08
2018-02-06T08:24:25.123Z,100978.32
2018-02-06T08:26:51.064Z,100974.93
2018-02-06T08:29:17.037Z,100975.75
2018-02-06T08:31:43.021Z,100967.72
2018-02-06T08:34:08.981Z,100964.09
2018-02-06T08:36:35.024Z,100961.81
2018-02-06T08:39:00.986Z,100958.69
2018-02-06T08:41:26.925Z,100961.41
2018-02-06T08:43:52.864Z,100956.34
2018-02-06T08:46:18.865Z,100954.18
2018-02-06T08:48:44.806Z,100948.05
2018-02-06T08:51:10.809Z,100947.62
2018-02-06T08:53:36.773Z,100949.14
2018-02-06T08:56:02.736Z,100942.98
2018-02-06T08:58:28.678Z,100933.41
2018-02-06T09:00:54.622Z,100931.03
2018-02-06T09:03:20.585Z,100927.27
2018-02-06T09:05:46.529Z,100920.69
2018-02-06T09:08:12.494Z,100925.26
2018-02-06T09:10:38.442Z,100925.53
2018-02-06T09:13:04.404Z,100927.25
2018-02-06T09:15:30.360Z,100927.83
2018-02-06T09:17:56.307Z,100923.21
2018-02-06T09:20:22.273Z,100917.28
2018-02-06T09:22:48.245Z,100922.01
2018-02-06T09:25:14.178Z,100915.71
2018-02-06T09:27:40.144Z,100910.37
2018-02-06T09:30:06.092Z,100916.41
2018-02-06T09:32:32.066Z,100912.10
2018-02-06T09:34:58.098Z,100923.25
2018-02-06T09:37:24.036Z,100914.03
2018-02-06T09:39:49.993Z,100914.22
2018-02-06T09:42:15.937Z,100918.42
2018-02-06T09:44:41.907Z,100915.80
2018-02-06T09:47:07.864Z,100916.91
2018-02-06T09:49:33.821Z,100914.06
2018-02-06T09:51:59.766Z,100915.30
2018-02-06T09:54:25.738Z,100914.95
2018-02-06T09:56:51.673Z,100914.66
2018-02-06T09:59:17.658Z,100915.09
2018-02-06T10:01:43.597Z,100921.27
2018-02-06T10:04:09.554Z,100930.76
2018-02-06T10:06:35.504Z,100922.88
2018-02-06T10:09:01.575Z,100925.08
2018-02-06T10:11:27.546Z,100922.94
2018-02-06T10:13:53.490Z,100922.03
2018-02-06T10:16:19.457Z,100913.14
2018-02-06T10:18:45.398Z,100916.62
2018-02-06T10:21:11.369Z,100908.77
2018-02-06T10:23:37.401Z,100907.81
2018-02-06T10:26:03.340Z,100911.13
2018-02-06T10:28:29.303Z,100913.31
2018-02-06T10:30:55.311Z,100912.46
2018-02-06T10:33:21.262Z,100905.73
2018-02-06T10:35:47.208Z,100898.54
2018-02-06T10:38:13.214Z,100898.19
2018-02-06T10:40:39.152Z,100892.14
2018-02-06T10:43:05.104Z,100897.00
2018-02-06T10:45:31.133Z,100891.16
2018-02-06T10:47:57.098Z,100887.77
2018-02-06T10:50:23.087Z,100881.78
2018-02-06T10:52:49.042Z,100875.54
2018-02-06T10:55:15.016Z,100874.66
2018-02-06T10:57:40.972Z,100866.34
2018-02-06T11:00:06.923Z,100864.95
2018-02-06T11:02:32.890Z,100866.60
2018-02-06T11:04:58.828Z,100873.80
2018-02-06T11:07:24.801Z,100871.05
2018-02-06T11:09:50.760Z,100869.81
2018-02-06T11:12:16.705Z,100861.52
2018-02-06T11:14:42.660Z,100856.82
2018-02-06T11:17:08.618Z,100851.13
2018-02-06T11:19:34.586Z,100847.67
2018-02-06T11:22:00.517Z,100849.24
2018-02-06T11:24:26.476Z,100838.09
2018-02-06T11:26:52.421Z,100846.30
2018-02-06T11:29:18.401Z,100841.36
2018-02-06T11:31:44.346Z,100839.97
2018-02-06T11:34:10.311Z,100834.64
2018-02-06T11:36:36.265Z,100825.34
2018-02-06T11:39:02.213Z,100817.15
2018-02-06T11:41:28.178Z,100811.62
2018-02-06T11:43:54.237Z,100801.09
2018-02-06T11:46:20.197Z,100801.98
2018-02-06T11:48:46.161Z,100794.00
2018-02-06T11:51:12.157Z,100793.80
2018-02-06T11:53:38.081Z,100799.48
2018-02-06T11:56:04.033Z,100800.52
2018-02-06T11:58:29.972Z,100799.07
2018-02-06T12:00:55.913Z,100798.70
2018-02-06T12:03:21.877Z,100792.77
2018-02-06T12:05:47.886Z,100786.30
2018-02-06T12:08:13.857Z,100780.83
2018-02-06T12:10:39.809Z,100780.25
2018-02-06T12:13:05.753Z,100770.00
2018-02-06T12:15:31.717Z,100767.49
2018-02-06T12:17:57.661Z,100765.82
2018-02-06T12:20:23.601Z,100754.77
2018-02-06T12:22:49.565Z,100757.38
2018-02-06T12:25:15.553Z,100761.53
2018-02-06T12:27:41.517Z,100764.42
2018-02-06T12:30:07.465Z,100765.61
2018-02-06T12:32:33.428Z,100773.23
2018-02-06T12:34:59.384Z,100774.41
2018-02-06T12:37:25.334Z,100770.98
2018-02-06T12:39:51.300Z,100767.45
2018-02-06T12:42:17.341Z,100769.47
2018-02-06T12:44:43.280Z,100760.84
2018-02-06T12:47:09.249Z,100753.85
2018-02-06T12:49:35.188Z,100743.93
2018-02-06T12:52:01.150Z,100742.00
2018-02-06T12:54:27.104Z,100731.32
2018-02-06T12:56:53.049Z,100728.39
2018-02-06T12:59:19.023Z,100723.52
2018-02-06T13:01:44.966Z,100723.98
2018-02-06T13:04:11.093Z,100723.75
2018-02-06T13:06:37.024Z,100728.28
2018-02-06T13:09:02.988Z,100721.13
2018-02-06T13:11:28.925Z,100717.36
2018-02-06T13:13:54.897Z,100717.91
2018-02-06T13:16:20.841Z,100721.24
2018-02-06T13:18:46.813Z,100718.52
2018-02-06T13:21:12.815Z,100716.73
2018-02-06T13:23:38.772Z,100725.73
2018-02-06T13:26:04.740Z,100725.31
2018-02-06T13:28:30.701Z,100725.41
2018-02-06T13:30:56.658Z,100721.09
2018-02-06T13:33:22.597Z,100719.95
2018-02-06T13:35:48.582Z,100709.64
2018-02-06T13:38:14.523Z,100712.39
2018-02-06T13:40:40.465Z,100715.73
2018-02-06T13:43:06.427Z,100712.33
2018-02-06T13:45:32.389Z,100715.05
2018-02-06T13:47:58.356Z,100717.19
2018-02-06T13:50:24.320Z,100715.64
2018-02-06T13:52:50.286Z,100714.36
2018-02-06T13:55:16.222Z,100718.19
2018-02-06T13:57:42.190Z,100718.70
2018-02-06T14:00:08.129Z,100712.61
2018-02-06T14:02:34.109Z,100718.70
2018-02-06T14:05:00.055Z,100719.38
2018-02-06T14:07:26.017Z,100723.19
2018-02-06T14:09:51.956Z,100718.00
2018-02-06T14:12:17.925Z,100717.50
2018-02-06T14:14:43.865Z,100709.68
2018-02-06T14:17:09.837Z,100719.45
2018-02-06T14:19:35.805Z,100721.52
2018-02-06T14:22:01.765Z,100716.50
2018-02-06T14:24:27.709Z,100710.58
2018-02-06T14:26:53.662Z,100712.41
2018-02-06T14:29:19.661Z,100709.50
2018-02-06T14:31:45.637Z,100703.47
2018-02-06T14:34:11.597Z,100704.11
2018-02-06T14:36:37.639Z,100698.30
2018-02-06T14:39:03.588Z,100700.08
2018-02-06T14:41:29.541Z,100692.75
2018-02-06T14:43:55.482Z,100687.20
2018-02-06T14:46:21.461Z,100689.83
2018-02-06T14:48:47.398Z,100687.62
2018-02-06T14:51:13.372Z,100694.20
2018-02-06T14:53:39.328Z,100694.77
2018-02-06T14:56:05.280Z,100696.50
2018-02-06T14:58:31.327Z,100696.58
2018-02-06T15:00:57.338Z,100698.56
2018-02-06T15:03:23.361Z,100696.13
2018-02-06T15:05:49.324Z,100696.78
2018-02-06T15:08:15.269Z,100695.67
2018-02-06T15:10:41.239Z,100694.16
2018-02-06T15:13:07.294Z,100692.16
2018-02-06T15:15:33.283Z,100689.13
2018-02-06T15:17:59.240Z,100689.62
2018-02-06T15:20:25.210Z,100691.94
2018-02-06T15:22:51.265Z,100690.14
2018-02-06T15:25:17.216Z,100689.04
2018-02-06T15:27:43.201Z,100685.36
2018-02-06T15:30:09.198Z,100679.89
2018-02-06T15:32:35.166Z,100678.82
2018-02-06T15:35:01.112Z,100681.67
2018-02-06T15:37:27.116Z,100680.41
2018-02-06T15:39:53.203Z,100681.21
2018-02-06T15:42:19.142Z,100681.66
2018-02-06T15:44:45.104Z,100687.11
2018-02-06T15:47:11.064Z,100689.27
2018-02-06T15:49:37.010Z,100682.98
2018-02-06T15:54:35.330Z,100685.70
2018-02-06T15:57:01.260Z,100688.67
2018-02-06T15:59:27.282Z,100686.64
2018-02-06T16:01:53.204Z,100688.07
2018-02-06T16:04:19.185Z,100687.77
2018-02-06T16:06:45.105Z,100685.67
2018-02-06T16:09:11.109Z,100685.91
2018-02-06T16:11:37.049Z,100681.52
2018-02-06T16:14:03.013Z,100685.34
2018-02-06T16:16:28.965Z,100690.14
2018-02-06T16:18:54.917Z,100684.55
2018-02-06T16:21:20.868Z,100689.63
2018-02-06T16:23:46.821Z,100690.17
2018-02-06T16:26:12.833Z,100691.40
2018-02-06T16:28:38.821Z,100693.86
2018-02-06T16:31:04.797Z,100689.79
2018-02-06T16:33:30.784Z,100694.67
2018-02-06T16:35:56.756Z,100694.59
2018-02-06T16:38:22.724Z,100690.91
2018-02-06T16:40:48.668Z,100696.11
2018-02-06T16:43:14.638Z,100696.61
2018-02-06T16:45:40.596Z,100695.79
2018-02-06T16:48:06.557Z,100701.14
2018-02-06T16:50:32.507Z,100699.67
2018-02-06T16:52:58.475Z,100703.49
2018-02-06T16:55:24.413Z,100706.19
2018-02-06T16:57:50.398Z,100706.78
2018-02-06T17:00:16.349Z,100706.34
2018-02-06T17:02:42.295Z,100704.89
2018-02-06T17:05:08.258Z,100707.59
2018-02-06T17:07:34.219Z,100708.83
2018-02-06T17:10:00.182Z,100712.48
2018-02-06T17:12:26.129Z,100708.17
2018-02-06T17:14:52.106Z,100710.77
2018-02-06T17:17:18.045Z,100713.12
2018-02-06T17:19:44.024Z,100714.94
2018-02-06T17:22:09.973Z,100711.59
2018-02-06T17:24:35.948Z,100708.06
2018-02-06T17:27:01.886Z,100708.15
2018-02-06T17:29:27.857Z,100707.03
2018-02-06T17:31:53.815Z,100706.67
2018-02-06T17:34:19.810Z,100703.22
2018-02-06T17:36:45.733Z,100706.75
2018-02-06T17:39:11.685Z,100709.89
2018-02-06T17:41:37.629Z,100706.97
2018-02-06T17:44:03.573Z,100708.58
2018-02-06T17:46:29.542Z,100706.22
2018-02-06T17:48:55.498Z,100709.68
2018-02-06T17:51:21.470Z,100718.00
2018-02-06T17:53:47.428Z,100715.84
2018-02-06T17:56:13.377Z,100712.06
2018-02-06T17:58:39.354Z,100709.97
2018-02-06T18:01:05.293Z,100715.19
2018-02-06T18:03:31.305Z,100712.91
2018-02-06T18:05:57.261Z,100715.82
2018-02-06T18:08:23.233Z,100722.20
2018-02-06T18:10:49.210Z,100726.29
2018-02-06T18:13:15.164Z,100734.91
2018-02-06T18:15:41.129Z,100733.92
2018-02-06T18:18:07.087Z,100741.30
2018-02-06T18:20:33.082Z,100739.61
2018-02-06T18:22:59.029Z,100743.72
2018-02-06T18:25:24.984Z,100737.84
2018-02-06T18:27:50.958Z,100735.00
2018-02-06T18:30:16.901Z,100727.55
2018-02-06T18:32:42.870Z,100734.91
2018-02-06T18:35:08.821Z,100730.48
2018-02-06T18:37:34.786Z,100729.78
2018-02-06T18:40:00.740Z,100736.77
2018-02-06T18:42:26.702Z,100741.17
2018-02-06T18:44:52.657Z,100746.20
2018-02-06T18:47:18.608Z,100737.42
2018-02-06T18:49:44.579Z,100744.89
2018-02-06T18:52:10.521Z,100745.66
2018-02-06T18:54:36.517Z,100743.53
2018-02-06T18:57:02.479Z,100738.22
2018-02-06T18:59:28.446Z,100748.36
2018-02-06T19:01:54.386Z,100743.84
2018-02-06T19:04:20.358Z,100751.53
2018-02-06T19:06:46.306Z,100748.05
2018-02-06T19:09:12.262Z,100747.05
2018-02-06T19:11:38.295Z,100751.20
2018-02-06T19:14:04.203Z,100747.80
2018-02-06T19:16:30.194Z,100751.05
2018-02-06T19:18:56.146Z,100747.09
2018-02-06T19:21:22.120Z,100745.05
2018-02-06T19:23:48.088Z,100741.92
2018-02-06T19:26:14.031Z,100739.91
2018-02-06T19:28:39.978Z,100740.20
2018-02-06T19:31:05.939Z,100739.36
2018-02-06T19:33:31.905Z,100743.44
2018-02-06T19:35:57.865Z,100742.00
2018-02-06T19:38:23.869Z,100741.84
2018-02-06T19:40:49.812Z,100740.94
2018-02-06T19:43:15.753Z,100738.74
2018-02-06T19:45:41.718Z,100745.13
2018-02-06T19:48:07.657Z,100750.73
2018-02-06T19:50:33.638Z,100752.33
2018-02-06T19:52:59.589Z,100750.84
2018-02-06T19:55:25.568Z,100753.42
2018-02-06T19:57:51.518Z,100748.48
2018-02-06T20:00:17.470Z,100748.81
2018-02-06T20:02:43.432Z,100748.56
2018-02-06T20:05:09.406Z,100751.95
2018-02-06T20:07:35.444Z,100748.83
2018-02-06T20:10:01.410Z,100751.96
2018-02-06T20:12:27.365Z,100747.18
2018-02-06T20:14:53.332Z,100743.94
2018-02-06T20:17:19.291Z,100743.81
2018-02-06T20:19:45.323Z,100740.94
2018-02-06T20:22:11.297Z,100735.83
2018-02-06T20:24:37.259Z,100736.86
2018-02-06T20:27:03.195Z,100735.94
2018-02-06T20:29:29.162Z,100736.52
2018-02-06T20:31:55.131Z,100739.89
2018-02-06T20:34:21.109Z,100738.59
2018-02-06T20:36:47.063Z,100745.67
2018-02-06T20:39:13.026Z,100737.23
2018-02-06T20:41:39.022Z,100737.64
2018-02-06T20:44:05.059Z,100738.75
2018-02-06T20:46:30.970Z,100746.25
2018-02-06T20:48:56.937Z,100751.03
2018-02-06T20:51:23.117Z,100744.80
2018-02-06T20:53:49.136Z,100749.72
2018-02-06T20:56:15.081Z,100743.28
2018-02-06T20:58:41.057Z,100742.73
2018-02-06T21:01:07.004Z,100742.44
2018-02-06T21:03:32.966Z,100745.52
2018-02-06T21:05:58.901Z,100743.09
2018-02-06T21:08:24.851Z,100743.50
2018-02-06T21:10:50.809Z,100740.16
2018-02-06T21:13:16.848Z,100742.93
2018-02-06T21:15:42.789Z,100744.47
2018-02-06T21:18:08.737Z,100744.96
2018-02-06T21:20:34.721Z,100748.09
2018-02-06T21:23:00.682Z,100745.13
2018-02-06T21:25:26.637Z,100746.86
2018-02-06T21:27:52.591Z,100745.80
2018-02-06T21:30:18.538Z,100749.91
2018-02-06T21:32:44.495Z,100748.42
2018-02-06T21:35:10.455Z,100749.13
2018-02-06T21:37:36.414Z,100754.06
2018-02-06T21:40:02.368Z,100756.74
2018-02-06T21:42:28.380Z,100757.86
2018-02-06T21:44:54.314Z,100751.47
2018-02-06T21:47:20.257Z,100759.54
2018-02-06T21:49:46.220Z,100764.73
2018-02-06T21:52:12.182Z,100768.19
2018-02-06T21:54:38.161Z,100767.03
2018-02-06T21:57:04.098Z,100774.16
2018-02-06T21:59:30.061Z,100767.66
2018-02-06T22:01:56.037Z,100772.51
2018-02-06T22:04:22.007Z,100773.00
2018-02-06T22:06:48.005Z,100776.09
2018-02-06T22:09:14.034Z,100784.16
2018-02-06T22:11:39.992Z,100780.05
2018-02-06T22:14:05.990Z,100784.41
2018-02-06T22:16:31.965Z,100782.48
2018-02-06T22:18:57.933Z,100781.78
2018-02-06T22:21:23.879Z,100784.00
2018-02-06T22:23:49.838Z,100781.24
2018-02-06T22:26:15.782Z,100784.28
2018-02-06T22:28:41.751Z,100783.17
2018-02-06T22:31:07.689Z,100779.42
2018-02-06T22:33:33.677Z,100780.70
2018-02-06T22:35:59.645Z,100778.67
2018-02-06T22:38:25.634Z,100779.29
2018-02-06T22:40:51.600Z,100779.58
2018-02-06T22:43:17.544Z,100781.85
2018-02-06T22:45:43.625Z,100785.47
2018-02-06T22:48:09.561Z,100786.84
2018-02-06T22:50:35.617Z,100797.33
2018-02-06T22:53:01.671Z,100788.16
2018-02-06T22:55:27.629Z,100785.76
2018-02-06T22:57:53.593Z,100787.41
2018-02-06T23:00:19.531Z,100782.47
2018-02-06T23:02:45.641Z,100781.94
2018-02-06T23:05:11.597Z,100775.76
2018-02-06T23:07:37.582Z,100780.48
2018-02-06T23:10:03.584Z,100774.11
2018-02-06T23:12:29.547Z,100773.41
2018-02-06T23:14:55.538Z,100776.78
2018-02-06T23:17:21.515Z,100776.45
2018-02-06T23:19:47.493Z,100778.93
2018-02-06T23:22:13.469Z,100788.72
2018-02-06T23:24:39.533Z,100777.48
2018-02-06T23:27:05.498Z,100776.73
2018-02-06T23:29:31.455Z,100781.91
2018-02-06T23:31:57.409Z,100781.50
2018-02-06T23:34:23.475Z,100782.81
2018-02-06T23:36:49.569Z,100789.73
2018-02-06T23:39:15.552Z,100792.94
2018-02-06T23:41:41.549Z,100792.86
2018-02-06T23:44:07.517Z,100792.05
2018-02-06T23:46:33.552Z,100796.64
2018-02-06T23:48:59.505Z,100792.95
2018-02-06T23:51:25.469Z,100790.67
2018-02-06T23:53:51.420Z,100791.95
2018-02-06T23:56:17.385Z,100784.47
2018-02-06T23:58:43.328Z,100776.61
